sensor_id;sensor_type;location;lat;lon;timestamp;temperature;humidity
24992;DHT22;13014;48.356;10.884;2022-10-16T11:07:57;29.90;1.00
24992;DHT22;13014;48.356;10.884;2022-10-16T11:08:31;30.40;1.00
24992;DHT22;13014;48.356;10.884;2022-10-16T11:09:17;30.40;1.00
24992;DHT22;13014;48.356;10.884;2022-10-16T11:09:52;30.60;1.00
24992;DHT22;13014;48.356;10.884;2022-10-16T11:11:41;31.00;1.00
24992;DHT22;13014;48.356;10.884;2022-10-16T11:12:11;30.60;1.00
24992;DHT22;13014;48.356;10.884;2022-10-16T11:12:46;30.80;1.00
24992;DHT22;13014;48.356;10.884;2022-10-16T11:13:21;31.30;1.00
24992;DHT22;13014;48.356;10.884;2022-10-16T11:14:29;31.80;1.00
24992;DHT22;13014;48.356;10.884;2022-10-16T11:15:04;31.70;1.00
24992;DHT22;13014;48.356;10.884;2022-10-16T11:15:36;32.00;1.00
24992;DHT22;13014;48.356;10.884;2022-10-16T11:16:13;32.00;1.00
24992;DHT22;13014;48.356;10.884;2022-10-16T11:16:50;32.40;1.00
24992;DHT22;13014;48.356;10.884;2022-10-16T11:17:26;33.30;1.00
24992;DHT22;13014;48.356;10.884;2022-10-16T11:18:42;34.50;1.00
24992;DHT22;13014;48.356;10.884;2022-10-16T11:21:14;34.80;1.00
24992;DHT22;13014;48.356;10.884;2022-10-16T11:21:39;35.10;1.00
24992;DHT22;13014;48.356;10.884;2022-10-16T11:22:56;35.50;99.90
24992;DHT22;13014;48.356;10.884;2022-10-16T11:23:40;35.50;99.90
24992;DHT22;13014;48.356;10.884;2022-10-16T11:24:20;35.90;99.90
24992;DHT22;13014;48.356;10.884;2022-10-16T11:24:53;36.40;99.90
24992;DHT22;13014;48.356;10.884;2022-10-16T11:25:29;36.70;99.90
24992;DHT22;13014;48.356;10.884;2022-10-16T11:26:02;37.40;99.90
24992;DHT22;13014;48.356;10.884;2022-10-16T11:26:34;37.40;91.00
24992;DHT22;13014;48.356;10.884;2022-10-16T11:27:07;37.80;97.50
24992;DHT22;13014;48.356;10.884;2022-10-16T11:27:40;38.10;99.90
24992;DHT22;13014;48.356;10.884;2022-10-16T11:28:11;38.40;1.00
24992;DHT22;13014;48.356;10.884;2022-10-16T11:28:51;38.50;1.00
24992;DHT22;13014;48.356;10.884;2022-10-16T11:29:26;38.90;1.00
24992;DHT22;13014;48.356;10.884;2022-10-16T11:29:59;38.60;1.00
24992;DHT22;13014;48.356;10.884;2022-10-16T11:30:33;38.30;1.00
24992;DHT22;13014;48.356;10.884;2022-10-16T11:31:21;37.80;1.00
24992;DHT22;13014;48.356;10.884;2022-10-16T11:31:53;36.50;1.00
24992;DHT22;13014;48.356;10.884;2022-10-16T11:32:30;35.70;1.00
24992;DHT22;13014;48.356;10.884;2022-10-16T11:33:36;34.70;1.00
24992;DHT22;13014;48.356;10.884;2022-10-16T11:34:12;34.30;1.00
24992;DHT22;13014;48.356;10.884;2022-10-16T11:34:49;34.20;1.00
24992;DHT22;13014;48.356;10.884;2022-10-16T11:35:25;33.80;1.00
24992;DHT22;13014;48.356;10.884;2022-10-16T11:36:08;33.50;1.00
24992;DHT22;13014;48.356;10.884;2022-10-16T11:36:42;33.20;1.00
24992;DHT22;13014;48.356;10.884;2022-10-16T11:37:23;32.80;1.00
24992;DHT22;13014;48.356;10.884;2022-10-16T11:37:54;32.70;1.00
24992;DHT22;13014;48.356;10.884;2022-10-16T11:39:28;31.90;1.00
24992;DHT22;13014;48.356;10.884;2022-10-16T11:40:03;31.60;1.00
24992;DHT22;13014;48.356;10.884;2022-10-16T11:40:37;31.10;1.00
24992;DHT22;13014;48.356;10.884;2022-10-16T11:42:05;30.70;1.00
24992;DHT22;13014;48.356;10.884;2022-10-16T11:42:39;30.20;1.00
24992;DHT22;13014;48.356;10.884;2022-10-16T11:43:17;29.90;1.00
24992;DHT22;13014;48.356;10.884;2022-10-16T11:44:52;29.30;1.00
24992;DHT22;13014;48.356;10.884;2022-10-16T11:46:07;28.60;1.00
24992;DHT22;13014;48.356;10.884;2022-10-16T11:46:39;28.60;1.00
24992;DHT22;13014;48.356;10.884;2022-10-16T11:47:51;28.50;1.00
24992;DHT22;13014;48.356;10.884;2022-10-16T11:48:27;28.60;1.00
24992;DHT22;13014;48.356;10.884;2022-10-16T11:54:53;29.70;1.00
24992;DHT22;13014;48.356;10.884;2022-10-16T11:55:31;29.70;1.00
24992;DHT22;13014;48.356;10.884;2022-10-16T11:56:03;29.40;1.00
24992;DHT22;13014;48.356;10.884;2022-10-16T11:56:35;29.60;1.00
24992;DHT22;13014;48.356;10.884;2022-10-16T11:57:09;29.60;1.00
24992;DHT22;13014;48.356;10.884;2022-10-16T11:57:44;29.70;1.00
24992;DHT22;13014;48.356;10.884;2022-10-16T11:59:28;29.70;1.00
24992;DHT22;13014;48.356;10.884;2022-10-16T12:00:02;29.60;1.00
24992;DHT22;13014;48.356;10.884;2022-10-16T12:01:42;29.70;1.00
24992;DHT22;13014;48.356;10.884;2022-10-16T12:02:30;29.80;1.00
24992;DHT22;13014;48.356;10.884;2022-10-16T12:03:25;30.40;1.00
24992;DHT22;13014;48.356;10.884;2022-10-16T12:04:13;30.90;1.00
24992;DHT22;13014;48.356;10.884;2022-10-16T12:04:49;30.90;1.00
24992;DHT22;13014;48.356;10.884;2022-10-16T12:05:25;31.20;1.00
24992;DHT22;13014;48.356;10.884;2022-10-16T12:06:37;31.90;1.00
24992;DHT22;13014;48.356;10.884;2022-10-16T12:07:09;32.40;1.00
24992;DHT22;13014;48.356;10.884;2022-10-16T12:07:43;32.70;1.00
24992;DHT22;13014;48.356;10.884;2022-10-16T12:08:18;32.60;1.00
24992;DHT22;13014;48.356;10.884;2022-10-16T12:08:48;32.40;1.00
24992;DHT22;13014;48.356;10.884;2022-10-16T12:09:21;32.30;1.00
24992;DHT22;13014;48.356;10.884;2022-10-16T12:09:53;32.40;1.00
24992;DHT22;13014;48.356;10.884;2022-10-16T12:10:25;32.30;1.00
24992;DHT22;13014;48.356;10.884;2022-10-16T12:11:06;32.40;1.00
24992;DHT22;13014;48.356;10.884;2022-10-16T12:11:37;32.80;1.00
24992;DHT22;13014;48.356;10.884;2022-10-16T12:13:33;33.40;1.00
24992;DHT22;13014;48.356;10.884;2022-10-16T12:14:43;35.00;1.00
24992;DHT22;13014;48.356;10.884;2022-10-16T12:15:27;35.70;1.00
24992;DHT22;13014;48.356;10.884;2022-10-16T12:16:05;36.30;1.00
24992;DHT22;13014;48.356;10.884;2022-10-16T12:16:37;36.40;1.00
24992;DHT22;13014;48.356;10.884;2022-10-16T12:17:50;35.80;1.00
24992;DHT22;13014;48.356;10.884;2022-10-16T12:18:24;35.50;1.00
24992;DHT22;13014;48.356;10.884;2022-10-16T12:19:11;35.00;1.00
24992;DHT22;13014;48.356;10.884;2022-10-16T12:19:42;34.60;1.00
24992;DHT22;13014;48.356;10.884;2022-10-16T12:20:43;35.20;1.00
24992;DHT22;13014;48.356;10.884;2022-10-16T12:21:31;35.50;1.00
24992;DHT22;13014;48.356;10.884;2022-10-16T12:22:02;35.10;1.00
24992;DHT22;13014;48.356;10.884;2022-10-16T12:22:34;34.90;1.00
24992;DHT22;13014;48.356;10.884;2022-10-16T12:23:05;34.60;1.00
24992;DHT22;13014;48.356;10.884;2022-10-16T12:23:37;34.40;1.00
24992;DHT22;13014;48.356;10.884;2022-10-16T12:26:00;34.20;1.00
24992;DHT22;13014;48.356;10.884;2022-10-16T12:26:33;34.10;1.00
24992;DHT22;13014;48.356;10.884;2022-10-16T12:27:05;34.20;1.00
24992;DHT22;13014;48.356;10.884;2022-10-16T12:27:36;34.60;1.00
24992;DHT22;13014;48.356;10.884;2022-10-16T12:28:20;34.80;1.00
24992;DHT22;13014;48.356;10.884;2022-10-16T12:28:51;35.10;1.00
24992;DHT22;13014;48.356;10.884;2022-10-16T12:29:23;35.70;1.00
24992;DHT22;13014;48.356;10.884;2022-10-16T12:29:57;35.90;1.00
24992;DHT22;13014;48.356;10.884;2022-10-16T12:30:29;35.60;1.00
24992;DHT22;13014;48.356;10.884;2022-10-16T12:31:01;35.50;1.00
24992;DHT22;13014;48.356;10.884;2022-10-16T12:31:36;35.30;1.00
24992;DHT22;13014;48.356;10.884;2022-10-16T12:32:23;35.30;1.00
24992;DHT22;13014;48.356;10.884;2022-10-16T12:33:02;35.20;99.90
24992;DHT22;13014;48.356;10.884;2022-10-16T12:33:34;34.90;99.90
24992;DHT22;13014;48.356;10.884;2022-10-16T12:34:05;33.80;99.90
24992;DHT22;13014;48.356;10.884;2022-10-16T12:35:16;33.60;99.90
24992;DHT22;13014;48.356;10.884;2022-10-16T12:35:47;33.30;99.90
24992;DHT22;13014;48.356;10.884;2022-10-16T12:36:31;33.80;99.90
24992;DHT22;13014;48.356;10.884;2022-10-16T12:37:36;33.90;99.90
24992;DHT22;13014;48.356;10.884;2022-10-16T12:38:06;33.90;99.90
24992;DHT22;13014;48.356;10.884;2022-10-16T12:39:16;34.40;99.90
24992;DHT22;13014;48.356;10.884;2022-10-16T12:39:50;34.80;99.90
24992;DHT22;13014;48.356;10.884;2022-10-16T12:41:10;35.40;1.00
24992;DHT22;13014;48.356;10.884;2022-10-16T12:41:44;35.60;99.90
24992;DHT22;13014;48.356;10.884;2022-10-16T12:42:58;35.80;99.90
24992;DHT22;13014;48.356;10.884;2022-10-16T12:44:02;36.00;99.90
24992;DHT22;13014;48.356;10.884;2022-10-16T12:44:35;36.50;1.00
24992;DHT22;13014;48.356;10.884;2022-10-16T12:45:21;36.70;99.90
24992;DHT22;13014;48.356;10.884;2022-10-16T12:46:00;37.00;1.00
24992;DHT22;13014;48.356;10.884;2022-10-16T12:47:03;37.20;99.90
24992;DHT22;13014;48.356;10.884;2022-10-16T12:48:17;37.60;99.90
24992;DHT22;13014;48.356;10.884;2022-10-16T12:48:49;37.20;99.90
24992;DHT22;13014;48.356;10.884;2022-10-16T12:49:22;36.70;99.90
24992;DHT22;13014;48.356;10.884;2022-10-16T12:49:54;36.10;99.90
24992;DHT22;13014;48.356;10.884;2022-10-16T12:50:29;35.40;99.90
24992;DHT22;13014;48.356;10.884;2022-10-16T12:52:03;35.00;99.90
24992;DHT22;13014;48.356;10.884;2022-10-16T12:52:35;33.50;99.90
24992;DHT22;13014;48.356;10.884;2022-10-16T12:53:27;33.00;99.90
24992;DHT22;13014;48.356;10.884;2022-10-16T12:55:00;32.00;99.90
24992;DHT22;13014;48.356;10.884;2022-10-16T12:55:33;32.00;99.90
24992;DHT22;13014;48.356;10.884;2022-10-16T12:57:36;32.80;99.90
24992;DHT22;13014;48.356;10.884;2022-10-16T12:59:09;34.80;99.90
24992;DHT22;13014;48.356;10.884;2022-10-16T12:59:45;35.70;99.90
24992;DHT22;13014;48.356;10.884;2022-10-16T13:00:21;36.70;99.90
24992;DHT22;13014;48.356;10.884;2022-10-16T13:00:57;37.70;99.90
24992;DHT22;13014;48.356;10.884;2022-10-16T13:02:03;38.50;99.90
24992;DHT22;13014;48.356;10.884;2022-10-16T13:07:41;38.50;99.90
24992;DHT22;13014;48.356;10.884;2022-10-16T13:10:26;38.50;99.90
24992;DHT22;13014;48.356;10.884;2022-10-16T13:11:05;38.70;99.90
24992;DHT22;13014;48.356;10.884;2022-10-16T13:12:18;38.80;99.90
24992;DHT22;13014;48.356;10.884;2022-10-16T13:12:58;39.00;99.90
24992;DHT22;13014;48.356;10.884;2022-10-16T13:14:27;38.40;46.70
24992;DHT22;13014;48.356;10.884;2022-10-16T13:16:24;37.10;69.10
24992;DHT22;13014;48.356;10.884;2022-10-16T13:18:42;38.10;99.90
24992;DHT22;13014;48.356;10.884;2022-10-16T13:20:22;39.10;99.90
24992;DHT22;13014;48.356;10.884;2022-10-16T13:22:29;40.30;91.90
24992;DHT22;13014;48.356;10.884;2022-10-16T13:23:14;40.80;53.10
24992;DHT22;13014;48.356;10.884;2022-10-16T13:25:39;40.10;37.50
24992;DHT22;13014;48.356;10.884;2022-10-16T13:26:30;40.70;79.20
24992;DHT22;13014;48.356;10.884;2022-10-16T13:27:10;41.00;1.00
24992;DHT22;13014;48.356;10.884;2022-10-16T13:28:21;41.30;1.00
24992;DHT22;13014;48.356;10.884;2022-10-16T13:28:52;41.20;1.00
24992;DHT22;13014;48.356;10.884;2022-10-16T13:29:23;40.90;1.00
24992;DHT22;13014;48.356;10.884;2022-10-16T13:29:58;40.80;1.00
24992;DHT22;13014;48.356;10.884;2022-10-16T13:30:31;40.80;1.00
24992;DHT22;13014;48.356;10.884;2022-10-16T13:31:04;41.30;1.00
24992;DHT22;13014;48.356;10.884;2022-10-16T13:31:36;41.60;1.00
24992;DHT22;13014;48.356;10.884;2022-10-16T13:32:09;41.60;1.00
24992;DHT22;13014;48.356;10.884;2022-10-16T13:32:40;41.60;1.00
24992;DHT22;13014;48.356;10.884;2022-10-16T13:33:14;42.00;1.00
24992;DHT22;13014;48.356;10.884;2022-10-16T13:33:47;41.80;1.00
24992;DHT22;13014;48.356;10.884;2022-10-16T13:34:20;41.40;1.00
24992;DHT22;13014;48.356;10.884;2022-10-16T13:34:51;40.90;1.00
24992;DHT22;13014;48.356;10.884;2022-10-16T13:35:25;40.90;1.00
24992;DHT22;13014;48.356;10.884;2022-10-16T13:35:56;40.20;1.00
24992;DHT22;13014;48.356;10.884;2022-10-16T13:36:34;40.20;1.00
24992;DHT22;13014;48.356;10.884;2022-10-16T13:37:15;40.00;1.00
24992;DHT22;13014;48.356;10.884;2022-10-16T13:37:46;40.00;1.00
24992;DHT22;13014;48.356;10.884;2022-10-16T13:38:18;40.80;1.00
24992;DHT22;13014;48.356;10.884;2022-10-16T13:38:57;41.00;1.00
24992;DHT22;13014;48.356;10.884;2022-10-16T13:39:30;40.90;1.00
24992;DHT22;13014;48.356;10.884;2022-10-16T13:41:35;41.00;1.00
24992;DHT22;13014;48.356;10.884;2022-10-16T13:41:41;41.30;1.00
24992;DHT22;13014;48.356;10.884;2022-10-16T13:42:22;40.20;1.00
24992;DHT22;13014;48.356;10.884;2022-10-16T13:42:53;40.20;1.00
24992;DHT22;13014;48.356;10.884;2022-10-16T13:43:34;40.10;1.00
24992;DHT22;13014;48.356;10.884;2022-10-16T13:44:05;40.20;1.00
24992;DHT22;13014;48.356;10.884;2022-10-16T13:44:49;39.90;1.00
24992;DHT22;13014;48.356;10.884;2022-10-16T13:45:20;39.60;1.00
24992;DHT22;13014;48.356;10.884;2022-10-16T13:46:02;39.40;1.00
24992;DHT22;13014;48.356;10.884;2022-10-16T13:46:32;39.60;1.00
24992;DHT22;13014;48.356;10.884;2022-10-16T13:47:04;39.80;1.00
24992;DHT22;13014;48.356;10.884;2022-10-16T13:47:35;40.00;1.00
24992;DHT22;13014;48.356;10.884;2022-10-16T13:48:06;40.50;1.00
24992;DHT22;13014;48.356;10.884;2022-10-16T13:48:39;41.30;1.00
24992;DHT22;13014;48.356;10.884;2022-10-16T13:49:43;41.80;1.00
24992;DHT22;13014;48.356;10.884;2022-10-16T13:50:15;41.80;1.00
24992;DHT22;13014;48.356;10.884;2022-10-16T13:50:46;42.00;1.00
24992;DHT22;13014;48.356;10.884;2022-10-16T13:51:28;42.20;1.00
24992;DHT22;13014;48.356;10.884;2022-10-16T13:51:59;42.50;1.00
24992;DHT22;13014;48.356;10.884;2022-10-16T13:52:30;42.10;1.00
24992;DHT22;13014;48.356;10.884;2022-10-16T13:53:09;42.10;1.00
24992;DHT22;13014;48.356;10.884;2022-10-16T13:53:43;42.00;1.00
24992;DHT22;13014;48.356;10.884;2022-10-16T13:54:13;42.60;1.00
24992;DHT22;13014;48.356;10.884;2022-10-16T13:54:44;43.10;1.00
24992;DHT22;13014;48.356;10.884;2022-10-16T13:55:15;43.20;1.00
24992;DHT22;13014;48.356;10.884;2022-10-16T13:55:46;43.40;1.00
24992;DHT22;13014;48.356;10.884;2022-10-16T13:56:18;43.40;1.00
24992;DHT22;13014;48.356;10.884;2022-10-16T13:56:48;43.30;1.00
24992;DHT22;13014;48.356;10.884;2022-10-16T13:57:21;43.40;1.00
24992;DHT22;13014;48.356;10.884;2022-10-16T13:57:52;44.00;1.00
24992;DHT22;13014;48.356;10.884;2022-10-16T13:58:23;44.50;1.00
24992;DHT22;13014;48.356;10.884;2022-10-16T13:59:03;44.30;1.00
24992;DHT22;13014;48.356;10.884;2022-10-16T13:59:34;44.10;1.00
24992;DHT22;13014;48.356;10.884;2022-10-16T14:00:17;44.00;1.00
24992;DHT22;13014;48.356;10.884;2022-10-16T14:00:54;43.80;1.00
24992;DHT22;13014;48.356;10.884;2022-10-16T14:01:29;44.20;1.00
24992;DHT22;13014;48.356;10.884;2022-10-16T14:02:00;44.20;1.00
24992;DHT22;13014;48.356;10.884;2022-10-16T14:02:37;44.20;1.00
24992;DHT22;13014;48.356;10.884;2022-10-16T14:03:12;43.70;1.00
24992;DHT22;13014;48.356;10.884;2022-10-16T14:03:43;43.20;1.00
24992;DHT22;13014;48.356;10.884;2022-10-16T14:04:14;42.80;1.00
24992;DHT22;13014;48.356;10.884;2022-10-16T14:04:45;42.60;1.00
24992;DHT22;13014;48.356;10.884;2022-10-16T14:05:16;42.30;1.00
24992;DHT22;13014;48.356;10.884;2022-10-16T14:05:48;42.70;1.00
24992;DHT22;13014;48.356;10.884;2022-10-16T14:06:20;42.90;1.00
24992;DHT22;13014;48.356;10.884;2022-10-16T14:06:54;42.90;1.00
24992;DHT22;13014;48.356;10.884;2022-10-16T14:07:25;42.80;1.00
24992;DHT22;13014;48.356;10.884;2022-10-16T14:07:56;42.90;1.00
24992;DHT22;13014;48.356;10.884;2022-10-16T14:08:28;42.90;1.00
24992;DHT22;13014;48.356;10.884;2022-10-16T14:09:06;43.10;1.00
24992;DHT22;13014;48.356;10.884;2022-10-16T14:09:37;42.90;1.00
24992;DHT22;13014;48.356;10.884;2022-10-16T14:10:26;42.60;1.00
24992;DHT22;13014;48.356;10.884;2022-10-16T14:10:58;42.30;1.00
24992;DHT22;13014;48.356;10.884;2022-10-16T14:11:29;41.80;1.00
24992;DHT22;13014;48.356;10.884;2022-10-16T14:12:01;41.20;1.00
24992;DHT22;13014;48.356;10.884;2022-10-16T14:12:32;40.80;1.00
24992;DHT22;13014;48.356;10.884;2022-10-16T14:13:04;40.50;1.00
24992;DHT22;13014;48.356;10.884;2022-10-16T14:13:52;39.60;1.00
24992;DHT22;13014;48.356;10.884;2022-10-16T14:14:23;39.10;1.00
24992;DHT22;13014;48.356;10.884;2022-10-16T14:14:55;39.20;1.00
24992;DHT22;13014;48.356;10.884;2022-10-16T14:15:26;39.20;1.00
24992;DHT22;13014;48.356;10.884;2022-10-16T14:15:56;38.80;1.00
24992;DHT22;13014;48.356;10.884;2022-10-16T14:16:30;38.40;1.00
24992;DHT22;13014;48.356;10.884;2022-10-16T14:17:01;38.10;1.00
24992;DHT22;13014;48.356;10.884;2022-10-16T14:17:32;37.60;1.00
24992;DHT22;13014;48.356;10.884;2022-10-16T14:18:04;37.30;1.00
24992;DHT22;13014;48.356;10.884;2022-10-16T14:18:35;36.80;1.00
24992;DHT22;13014;48.356;10.884;2022-10-16T14:19:13;36.50;1.00
24992;DHT22;13014;48.356;10.884;2022-10-16T14:19:48;36.20;1.00
24992;DHT22;13014;48.356;10.884;2022-10-16T14:20:20;36.40;1.00
24992;DHT22;13014;48.356;10.884;2022-10-16T14:20:51;36.40;1.00
24992;DHT22;13014;48.356;10.884;2022-10-16T14:21:21;36.50;1.00
24992;DHT22;13014;48.356;10.884;2022-10-16T14:21:53;36.20;1.00
24992;DHT22;13014;48.356;10.884;2022-10-16T14:23:01;36.00;1.00
24992;DHT22;13014;48.356;10.884;2022-10-16T14:23:34;35.70;1.00
24992;DHT22;13014;48.356;10.884;2022-10-16T14:24:19;35.40;1.00
24992;DHT22;13014;48.356;10.884;2022-10-16T14:24:51;35.40;1.00
24992;DHT22;13014;48.356;10.884;2022-10-16T14:25:26;35.20;1.00
24992;DHT22;13014;48.356;10.884;2022-10-16T14:26:41;35.50;1.00
24992;DHT22;13014;48.356;10.884;2022-10-16T14:28:30;35.30;1.00
24992;DHT22;13014;48.356;10.884;2022-10-16T14:29:09;35.20;1.00
24992;DHT22;13014;48.356;10.884;2022-10-16T14:29:41;35.30;1.00
24992;DHT22;13014;48.356;10.884;2022-10-16T14:30:16;35.10;1.00
24992;DHT22;13014;48.356;10.884;2022-10-16T14:31:55;34.90;1.00
24992;DHT22;13014;48.356;10.884;2022-10-16T14:32:25;34.70;1.00
24992;DHT22;13014;48.356;10.884;2022-10-16T14:33:00;34.70;1.00
24992;DHT22;13014;48.356;10.884;2022-10-16T14:33:31;34.70;1.00
24992;DHT22;13014;48.356;10.884;2022-10-16T14:34:03;34.40;1.00
24992;DHT22;13014;48.356;10.884;2022-10-16T14:34:38;34.20;1.00
24992;DHT22;13014;48.356;10.884;2022-10-16T14:35:27;34.20;1.00
24992;DHT22;13014;48.356;10.884;2022-10-16T14:36:02;34.20;1.00
24992;DHT22;13014;48.356;10.884;2022-10-16T14:36:33;34.20;1.00
24992;DHT22;13014;48.356;10.884;2022-10-16T14:37:16;34.10;1.00
24992;DHT22;13014;48.356;10.884;2022-10-16T14:37:53;34.00;1.00
24992;DHT22;13014;48.356;10.884;2022-10-16T14:38:24;34.50;1.00
24992;DHT22;13014;48.356;10.884;2022-10-16T14:38:59;34.60;1.00
24992;DHT22;13014;48.356;10.884;2022-10-16T14:39:31;34.60;1.00
24992;DHT22;13014;48.356;10.884;2022-10-16T14:40:02;34.60;1.00
24992;DHT22;13014;48.356;10.884;2022-10-16T14:40:33;34.50;1.00
24992;DHT22;13014;48.356;10.884;2022-10-16T14:41:05;34.60;1.00
24992;DHT22;13014;48.356;10.884;2022-10-16T14:41:44;34.70;1.00
24992;DHT22;13014;48.356;10.884;2022-10-16T14:42:20;34.70;1.00
24992;DHT22;13014;48.356;10.884;2022-10-16T14:42:50;34.70;1.00
24992;DHT22;13014;48.356;10.884;2022-10-16T14:43:40;34.80;1.00
24992;DHT22;13014;48.356;10.884;2022-10-16T14:44:11;34.90;1.00
24992;DHT22;13014;48.356;10.884;2022-10-16T14:44:42;34.80;1.00
24992;DHT22;13014;48.356;10.884;2022-10-16T14:45:13;34.70;1.00
24992;DHT22;13014;48.356;10.884;2022-10-16T14:45:54;34.70;1.00
24992;DHT22;13014;48.356;10.884;2022-10-16T14:47:15;34.70;1.00
24992;DHT22;13014;48.356;10.884;2022-10-16T14:47:51;34.70;1.00
24992;DHT22;13014;48.356;10.884;2022-10-16T14:48:22;34.70;1.00
24992;DHT22;13014;48.356;10.884;2022-10-16T14:49:00;34.60;1.00
24992;DHT22;13014;48.356;10.884;2022-10-16T14:49:32;34.60;1.00
24992;DHT22;13014;48.356;10.884;2022-10-16T14:50:03;34.50;1.00
24992;DHT22;13014;48.356;10.884;2022-10-16T14:50:33;34.50;1.00
24992;DHT22;13014;48.356;10.884;2022-10-16T14:51:05;34.40;1.00
24992;DHT22;13014;48.356;10.884;2022-10-16T14:51:35;34.40;1.00
24992;DHT22;13014;48.356;10.884;2022-10-16T14:52:10;34.50;1.00
24992;DHT22;13014;48.356;10.884;2022-10-16T14:52:41;34.60;1.00
24992;DHT22;13014;48.356;10.884;2022-10-16T14:53:14;34.50;1.00
24992;DHT22;13014;48.356;10.884;2022-10-16T14:53:45;34.90;1.00
24992;DHT22;13014;48.356;10.884;2022-10-16T14:54:16;35.10;1.00
24992;DHT22;13014;48.356;10.884;2022-10-16T14:54:50;35.30;1.00
24992;DHT22;13014;48.356;10.884;2022-10-16T14:55:24;35.40;1.00
24992;DHT22;13014;48.356;10.884;2022-10-16T14:55:55;35.70;1.00
24992;DHT22;13014;48.356;10.884;2022-10-16T14:56:28;35.80;1.00
24992;DHT22;13014;48.356;10.884;2022-10-16T14:56:59;36.10;1.00
24992;DHT22;13014;48.356;10.884;2022-10-16T14:57:30;36.10;1.00
24992;DHT22;13014;48.356;10.884;2022-10-16T14:58:01;35.90;1.00
24992;DHT22;13014;48.356;10.884;2022-10-16T14:58:32;36.00;1.00
24992;DHT22;13014;48.356;10.884;2022-10-16T14:59:03;35.80;1.00
24992;DHT22;13014;48.356;10.884;2022-10-16T14:59:34;35.70;1.00
24992;DHT22;13014;48.356;10.884;2022-10-16T15:00:23;35.90;1.00
24992;DHT22;13014;48.356;10.884;2022-10-16T15:00:55;35.90;1.00
24992;DHT22;13014;48.356;10.884;2022-10-16T15:01:26;35.80;1.00
24992;DHT22;13014;48.356;10.884;2022-10-16T15:01:56;35.70;1.00
24992;DHT22;13014;48.356;10.884;2022-10-16T15:02:28;35.60;1.00
24992;DHT22;13014;48.356;10.884;2022-10-16T15:02:59;35.40;1.00
24992;DHT22;13014;48.356;10.884;2022-10-16T15:03:29;35.60;1.00
24992;DHT22;13014;48.356;10.884;2022-10-16T15:04:00;35.80;1.00
24992;DHT22;13014;48.356;10.884;2022-10-16T15:04:30;35.90;1.00
24992;DHT22;13014;48.356;10.884;2022-10-16T15:05:04;35.70;1.00
24992;DHT22;13014;48.356;10.884;2022-10-16T15:05:35;35.50;1.00
24992;DHT22;13014;48.356;10.884;2022-10-16T15:06:09;35.00;1.00
24992;DHT22;13014;48.356;10.884;2022-10-16T15:06:40;34.70;1.00
24992;DHT22;13014;48.356;10.884;2022-10-16T15:07:11;34.40;1.00
24992;DHT22;13014;48.356;10.884;2022-10-16T15:07:42;34.10;1.00
24992;DHT22;13014;48.356;10.884;2022-10-16T15:08:12;33.90;1.00
24992;DHT22;13014;48.356;10.884;2022-10-16T15:08:43;33.70;1.00
24992;DHT22;13014;48.356;10.884;2022-10-16T15:09:14;33.40;1.00
24992;DHT22;13014;48.356;10.884;2022-10-16T15:09:44;33.40;1.00
24992;DHT22;13014;48.356;10.884;2022-10-16T15:10:15;33.20;1.00
24992;DHT22;13014;48.356;10.884;2022-10-16T15:10:46;33.00;1.00
24992;DHT22;13014;48.356;10.884;2022-10-16T15:11:18;32.70;1.00
24992;DHT22;13014;48.356;10.884;2022-10-16T15:11:49;32.70;1.00
24992;DHT22;13014;48.356;10.884;2022-10-16T15:12:19;32.60;1.00
24992;DHT22;13014;48.356;10.884;2022-10-16T15:12:50;32.70;1.00
24992;DHT22;13014;48.356;10.884;2022-10-16T15:13:20;32.40;1.00
24992;DHT22;13014;48.356;10.884;2022-10-16T15:13:51;32.10;1.00
24992;DHT22;13014;48.356;10.884;2022-10-16T15:14:21;32.00;1.00
24992;DHT22;13014;48.356;10.884;2022-10-16T15:14:52;31.80;1.00
24992;DHT22;13014;48.356;10.884;2022-10-16T15:15:53;31.30;1.00
24992;DHT22;13014;48.356;10.884;2022-10-16T15:16:24;31.10;1.00
24992;DHT22;13014;48.356;10.884;2022-10-16T15:16:55;31.10;1.00
24992;DHT22;13014;48.356;10.884;2022-10-16T15:17:25;30.90;1.00
24992;DHT22;13014;48.356;10.884;2022-10-16T15:17:56;30.60;1.00
24992;DHT22;13014;48.356;10.884;2022-10-16T15:18:27;30.50;1.00
24992;DHT22;13014;48.356;10.884;2022-10-16T15:18:57;30.40;1.00
24992;DHT22;13014;48.356;10.884;2022-10-16T15:19:28;30.20;1.00
24992;DHT22;13014;48.356;10.884;2022-10-16T15:19:59;29.90;1.00
24992;DHT22;13014;48.356;10.884;2022-10-16T15:20:36;29.60;1.00
24992;DHT22;13014;48.356;10.884;2022-10-16T15:21:07;29.30;1.00
24992;DHT22;13014;48.356;10.884;2022-10-16T15:21:38;29.10;1.00
24992;DHT22;13014;48.356;10.884;2022-10-16T15:22:10;28.90;1.00
24992;DHT22;13014;48.356;10.884;2022-10-16T15:22:41;28.70;1.00
24992;DHT22;13014;48.356;10.884;2022-10-16T15:23:16;28.60;1.00
24992;DHT22;13014;48.356;10.884;2022-10-16T15:23:48;28.40;1.00
24992;DHT22;13014;48.356;10.884;2022-10-16T15:24:18;28.30;1.00
24992;DHT22;13014;48.356;10.884;2022-10-16T15:24:49;28.10;1.00
24992;DHT22;13014;48.356;10.884;2022-10-16T15:25:56;27.90;1.00
24992;DHT22;13014;48.356;10.884;2022-10-16T15:26:27;27.80;1.00
24992;DHT22;13014;48.356;10.884;2022-10-16T15:26:58;27.70;1.00
24992;DHT22;13014;48.356;10.884;2022-10-16T15:27:29;27.60;1.00
24992;DHT22;13014;48.356;10.884;2022-10-16T15:28:00;27.50;1.00
24992;DHT22;13014;48.356;10.884;2022-10-16T15:28:30;27.70;1.00
24992;DHT22;13014;48.356;10.884;2022-10-16T15:29:01;27.50;1.00
24992;DHT22;13014;48.356;10.884;2022-10-16T15:29:31;27.50;1.00
24992;DHT22;13014;48.356;10.884;2022-10-16T15:30:02;27.40;1.00
24992;DHT22;13014;48.356;10.884;2022-10-16T15:30:33;27.40;1.00
24992;DHT22;13014;48.356;10.884;2022-10-16T15:31:03;27.50;1.00
24992;DHT22;13014;48.356;10.884;2022-10-16T15:31:34;27.60;1.00
24992;DHT22;13014;48.356;10.884;2022-10-16T15:32:05;27.50;1.00
24992;DHT22;13014;48.356;10.884;2022-10-16T15:32:35;27.50;1.00
24992;DHT22;13014;48.356;10.884;2022-10-16T15:33:11;27.30;1.00
24992;DHT22;13014;48.356;10.884;2022-10-16T15:33:42;27.10;1.00
24992;DHT22;13014;48.356;10.884;2022-10-16T15:34:13;27.00;1.00
24992;DHT22;13014;48.356;10.884;2022-10-16T15:34:44;27.00;1.00
24992;DHT22;13014;48.356;10.884;2022-10-16T15:35:14;26.90;1.00
24992;DHT22;13014;48.356;10.884;2022-10-16T15:35:51;26.90;1.00
24992;DHT22;13014;48.356;10.884;2022-10-16T15:36:25;26.90;1.00
24992;DHT22;13014;48.356;10.884;2022-10-16T15:36:56;26.80;1.00
24992;DHT22;13014;48.356;10.884;2022-10-16T15:37:28;26.80;1.00
24992;DHT22;13014;48.356;10.884;2022-10-16T15:37:58;26.60;1.00
24992;DHT22;13014;48.356;10.884;2022-10-16T15:38:29;26.60;1.00
24992;DHT22;13014;48.356;10.884;2022-10-16T15:39:00;26.60;1.00
24992;DHT22;13014;48.356;10.884;2022-10-16T15:39:30;26.40;1.00